Vail, Colorado
Current Conditions -  °F | °C
As of 3:17 PM on Friday 24 Oct 2014 (Local Time) from KCCU Reporting Station
Clear Clear  
Wind Chill: 54°   Ceiling: Unl
Heat Index: 54°   Visibility: 10mi
Dew Point: 10°   Wind: 13mph
Humidity: 18%   Direction: 250°WSW
Pressure: 30.62"   Gusts: 21mph
Location:  39.64°N, 106.38°W
Report Text: KCCU 242117Z AUTO 25011G18KT 10SM CLR 12/M12 A3062 RMK AO2
Loading
Personal Weather Stations






























Interactive Weather Map
Tropical Storm Tracking
New forecast layout! Learn more

10-Day Weather Forecast

Advertisements
Track Severe Weather on mobile